Time,TemperatureF,DewpointF,PressureIn,WindDirection,WindDirectionDegrees,WindSpeedMPH,WindSpeedGustMPH,Humidity,HourlyPrecipIn,Conditions,Clouds,dailyrainin,SoftwareType,DateUTC
2013-01-28 00:04:00,34.4,32.6,29.81,SSE,153,1.0,3.0,93,-99.99,,,0.00,1-wire,2013-01-28 06:04:00,
2013-01-28 00:09:00,34.5,32.8,29.81,SE,141,1.0,3.0,93,-99.99,,,0.00,1-wire,2013-01-28 06:09:00,
2013-01-28 00:15:00,35.0,33.3,29.80,SE,141,0.0,0.0,93,-99.99,,,0.00,1-wire,2013-01-28 06:15:00,
2013-01-28 00:20:00,35.0,33.3,29.80,SE,141,0.0,0.0,93,-99.99,,,0.01,1-wire,2013-01-28 06:20:00,
2013-01-28 00:25:00,34.9,33.1,29.80,SE,142,0.0,0.0,93,-99.99,,,0.01,1-wire,2013-01-28 06:25:00,
2013-01-28 00:31:00,34.6,32.7,29.79,SE,142,0.0,0.0,93,-99.99,,,0.02,1-wire,2013-01-28 06:31:00,
2013-01-28 00:36:00,35.3,33.4,29.79,SE,139,0.0,0.0,93,-99.99,,,0.02,1-wire,2013-01-28 06:36:00,
2013-01-28 00:42:00,35.2,33.3,29.79,SE,139,0.0,0.0,93,-99.99,,,0.02,1-wire,2013-01-28 06:42:00,
2013-01-28 00:47:00,35.0,33.0,29.79,SE,139,0.0,0.0,93,-99.99,,,0.02,1-wire,2013-01-28 06:47:00,
2013-01-28 00:52:00,35.3,33.2,29.79,SE,141,0.0,0.0,92,-99.99,,,0.03,1-wire,2013-01-28 06:52:00,
2013-01-28 00:57:00,35.3,33.3,29.79,SE,141,0.0,0.0,92,-99.99,,,0.03,1-wire,2013-01-28 06:57:00,
2013-01-28 01:02:00,35.0,33.0,29.79,SE,141,0.0,0.0,92,-99.99,,,0.04,1-wire,2013-01-28 07:02:00,
2013-01-28 01:07:00,34.4,32.4,29.78,SE,128,0.0,0.0,92,-99.99,,,0.04,1-wire,2013-01-28 07:07:00,
2013-01-28 01:12:00,34.6,32.6,29.78,SE,128,0.0,0.0,92,-99.99,,,0.04,1-wire,2013-01-28 07:12:00,
2013-01-28 01:17:00,34.6,32.6,29.78,SE,128,0.0,0.0,92,-99.99,,,0.04,1-wire,2013-01-28 07:17:00,
2013-01-28 01:23:00,34.5,32.4,29.77,East,80,0.0,0.0,92,-99.99,,,0.04,1-wire,2013-01-28 07:23:00,
2013-01-28 01:28:00,34.6,32.6,29.78,East,80,0.0,0.0,93,-99.99,,,0.04,1-wire,2013-01-28 07:28:00,
2013-01-28 01:33:00,34.9,33.0,29.77,East,80,0.0,0.0,93,-99.99,,,0.04,1-wire,2013-01-28 07:33:00,
2013-01-28 01:38:00,34.6,32.6,29.78,ENE,76,0.0,0.0,93,-99.99,,,0.04,1-wire,2013-01-28 07:38:00,
2013-01-28 01:43:00,34.9,33.0,29.77,ENE,76,0.0,0.0,93,-99.99,,,0.04,1-wire,2013-01-28 07:43:00,
2013-01-28 01:48:00,34.9,33.0,29.77,ENE,76,0.0,0.0,93,-99.99,,,0.04,1-wire,2013-01-28 07:48:00,
2013-01-28 01:53:00,34.9,32.9,29.77,East,79,0.0,0.0,92,-99.99,,,0.04,1-wire,2013-01-28 07:53:00,
2013-01-28 01:58:00,34.8,32.8,29.78,East,79,0.0,0.0,92,-99.99,,,0.04,1-wire,2013-01-28 07:58:00,
2013-01-28 02:03:00,34.9,33.0,29.78,East,79,0.0,0.0,93,-99.99,,,0.04,1-wire,2013-01-28 08:03:00,
2013-01-28 02:08:00,34.8,32.9,29.77,NNE,21,0.0,0.0,92,-99.99,,,0.05,1-wire,2013-01-28 08:08:00,
2013-01-28 02:13:00,35.1,33.0,29.77,NNE,21,0.0,0.0,92,-99.99,,,0.05,1-wire,2013-01-28 08:13:00,
2013-01-28 02:18:00,35.1,33.0,29.77,NNE,21,0.0,0.0,92,-99.99,,,0.05,1-wire,2013-01-28 08:18:00,
2013-01-28 02:23:00,34.9,32.8,29.77,ESE,117,0.0,0.0,92,-99.99,,,0.05,1-wire,2013-01-28 08:23:00,
2013-01-28 02:28:00,35.1,33.0,29.77,ESE,117,0.0,0.0,92,-99.99,,,0.05,1-wire,2013-01-28 08:28:00,
2013-01-28 02:33:00,35.0,32.9,29.77,ESE,117,0.0,0.0,92,-99.99,,,0.05,1-wire,2013-01-28 08:33:00,
2013-01-28 02:39:00,35.3,33.2,29.77,ESE,119,0.0,0.0,92,-99.99,,,0.05,1-wire,2013-01-28 08:39:00,
2013-01-28 02:44:00,35.0,32.9,29.77,ESE,119,0.0,0.0,92,-99.99,,,0.05,1-wire,2013-01-28 08:44:00,
2013-01-28 02:49:00,35.3,33.1,29.77,ESE,119,0.0,0.0,92,-99.99,,,0.05,1-wire,2013-01-28 08:49:00,
2013-01-28 02:54:00,35.3,33.2,29.76,SE,124,0.0,0.0,92,-99.99,,,0.05,1-wire,2013-01-28 08:54:00,
2013-01-28 02:59:00,35.0,32.9,29.77,SE,124,0.0,0.0,92,-99.99,,,0.05,1-wire,2013-01-28 08:59:00,
2013-01-28 03:05:00,34.7,32.6,29.77,SE,124,0.0,0.0,92,-99.99,,,0.05,1-wire,2013-01-28 09:05:00,
2013-01-28 03:11:00,34.7,32.5,29.76,SE,136,0.0,0.0,92,-99.99,,,0.05,1-wire,2013-01-28 09:11:00,
2013-01-28 03:16:00,34.8,32.7,29.76,SE,136,0.0,0.0,92,-99.99,,,0.05,1-wire,2013-01-28 09:16:00,
2013-01-28 03:21:00,35.0,32.8,29.76,NNW,347,0.0,0.0,92,-99.99,,,0.05,1-wire,2013-01-28 09:21:00,
2013-01-28 03:27:00,35.3,33.0,29.75,NNW,347,0.0,0.0,91,-99.99,,,0.05,1-wire,2013-01-28 09:27:00,
2013-01-28 03:32:00,35.3,33.1,29.75,NNW,347,0.0,0.0,92,-99.99,,,0.05,1-wire,2013-01-28 09:32:00,
2013-01-28 03:38:00,35.3,33.2,29.76,NNW,343,0.0,0.0,92,-99.99,,,0.05,1-wire,2013-01-28 09:38:00,
2013-01-28 03:43:00,34.9,32.7,29.75,NNW,343,0.0,0.0,92,-99.99,,,0.05,1-wire,2013-01-28 09:43:00,
2013-01-28 03:48:00,34.9,32.7,29.76,NNW,343,0.0,0.0,92,-99.99,,,0.05,1-wire,2013-01-28 09:48:00,
2013-01-28 03:54:00,34.7,32.6,29.77,NNW,332,0.0,0.0,92,-99.99,,,0.05,1-wire,2013-01-28 09:54:00,
2013-01-28 03:59:00,34.9,32.9,29.76,NNW,332,0.0,0.0,92,-99.99,,,0.05,1-wire,2013-01-28 09:59:00,
2013-01-28 04:05:00,35.0,33.0,29.76,NNW,332,0.0,0.0,92,-99.99,,,0.05,1-wire,2013-01-28 10:05:00,
2013-01-28 04:10:00,34.8,32.8,29.76,NNW,331,0.0,0.0,92,-99.99,,,0.05,1-wire,2013-01-28 10:10:00,
2013-01-28 04:15:00,34.6,32.5,29.76,NNW,331,0.0,0.0,92,-99.99,,,0.05,1-wire,2013-01-28 10:15:00,
2013-01-28 04:20:00,34.7,32.6,29.76,NNW,331,0.0,0.0,92,-99.99,,,0.05,1-wire,2013-01-28 10:20:00,
2013-01-28 04:25:00,34.9,32.9,29.76,NNW,330,0.0,0.0,92,-99.99,,,0.05,1-wire,2013-01-28 10:25:00,
2013-01-28 04:30:00,35.3,33.2,29.76,NNW,330,0.0,0.0,92,-99.99,,,0.05,1-wire,2013-01-28 10:30:00,
2013-01-28 04:35:00,34.7,32.6,29.75,NNW,330,0.0,0.0,92,-99.99,,,0.05,1-wire,2013-01-28 10:35:00,
2013-01-28 04:40:00,35.2,33.1,29.76,NNW,330,0.0,0.0,92,-99.99,,,0.05,1-wire,2013-01-28 10:40:00,
2013-01-28 04:45:00,35.0,33.0,29.76,NNW,330,0.0,0.0,92,-99.99,,,0.05,1-wire,2013-01-28 10:45:00,
2013-01-28 04:50:00,34.5,32.4,29.76,NNW,330,0.0,0.0,92,-99.99,,,0.05,1-wire,2013-01-28 10:50:00,
2013-01-28 04:55:00,34.4,32.3,29.75,NNW,330,0.0,0.0,92,-99.99,,,0.05,1-wire,2013-01-28 10:55:00,
2013-01-28 05:00:00,35.1,33.1,29.76,NNW,330,0.0,0.0,92,-99.99,,,0.05,1-wire,2013-01-28 11:00:00,
2013-01-28 05:05:00,34.6,32.6,29.77,NNW,330,0.0,0.0,93,-99.99,,,0.05,1-wire,2013-01-28 11:05:00,
2013-01-28 05:10:00,34.5,32.7,29.77,NNW,330,0.0,0.0,93,-99.99,,,0.05,1-wire,2013-01-28 11:10:00,
2013-01-28 05:15:00,34.9,33.3,29.77,NNW,330,0.0,0.0,94,-99.99,,,0.05,1-wire,2013-01-28 11:15:00,
2013-01-28 05:20:00,35.2,33.5,29.77,NNW,330,0.0,0.0,94,-99.99,,,0.05,1-wire,2013-01-28 11:20:00,
2013-01-28 05:25:00,35.5,34.0,29.78,NNW,332,0.0,0.0,94,-99.99,,,0.05,1-wire,2013-01-28 11:25:00,
2013-01-28 05:30:00,35.9,34.4,29.78,NNW,332,3.0,6.0,94,-99.99,,,0.05,1-wire,2013-01-28 11:30:00,
2013-01-28 05:35:00,36.4,34.9,29.77,NNW,332,1.0,3.0,94,-99.99,,,0.05,1-wire,2013-01-28 11:35:00,
2013-01-28 05:40:00,36.7,35.3,29.77,NNW,332,2.0,6.0,95,-99.99,,,0.05,1-wire,2013-01-28 11:40:00,
2013-01-28 05:45:00,36.8,35.5,29.78,NNW,332,3.0,6.0,95,-99.99,,,0.05,1-wire,2013-01-28 11:45:00,
2013-01-28 05:50:00,37.0,35.7,29.78,NNW,332,2.0,6.0,95,-99.99,,,0.05,1-wire,2013-01-28 11:50:00,
2013-01-28 05:55:00,37.0,35.7,29.79,NNW,333,1.0,3.0,95,-99.99,,,0.05,1-wire,2013-01-28 11:55:00,
2013-01-28 06:00:00,37.0,35.7,29.79,NNW,333,2.0,6.0,95,-99.99,,,0.05,1-wire,2013-01-28 12:00:00,
2013-01-28 06:05:00,37.1,35.8,29.79,NNW,333,2.0,6.0,95,-99.99,,,0.05,1-wire,2013-01-28 12:05:00,
2013-01-28 06:10:00,37.2,35.9,29.79,NW,305,1.0,3.0,95,-99.99,,,0.05,1-wire,2013-01-28 12:10:00,
2013-01-28 06:16:00,37.1,35.8,29.79,NW,305,1.0,3.0,95,-99.99,,,0.05,1-wire,2013-01-28 12:16:00,
2013-01-28 06:21:00,37.2,35.9,29.80,NW,305,0.0,0.0,95,-99.99,,,0.05,1-wire,2013-01-28 12:21:00,
2013-01-28 06:26:00,37.1,35.8,29.80,NW,305,1.0,6.0,95,-99.99,,,0.05,1-wire,2013-01-28 12:26:00,
2013-01-28 06:31:00,36.9,35.5,29.81,NW,305,3.0,6.0,95,-99.99,,,0.05,1-wire,2013-01-28 12:31:00,
2013-01-28 06:36:00,37.1,35.7,29.81,NW,305,2.0,6.0,95,-99.99,,,0.05,1-wire,2013-01-28 12:36:00,
2013-01-28 06:42:00,37.1,35.7,29.82,NW,305,1.0,3.0,95,-99.99,,,0.05,1-wire,2013-01-28 12:42:00,
2013-01-28 06:47:00,36.6,35.2,29.82,NW,305,4.0,8.0,94,-99.99,,,0.05,1-wire,2013-01-28 12:47:00,
2013-01-28 06:53:00,36.6,35.2,29.82,NW,304,2.0,6.0,94,-99.99,,,0.05,1-wire,2013-01-28 12:53:00,
2013-01-28 06:58:00,36.4,34.9,29.83,NW,304,3.0,6.0,94,-99.99,,,0.05,1-wire,2013-01-28 12:58:00,
2013-01-28 07:03:00,36.3,34.7,29.84,NW,304,2.0,6.0,94,-99.99,,,0.05,1-wire,2013-01-28 13:03:00,
2013-01-28 07:09:00,36.1,34.5,29.84,NW,316,1.0,3.0,94,-99.99,,,0.05,1-wire,2013-01-28 13:09:00,
2013-01-28 07:14:00,36.0,34.4,29.84,NW,316,2.0,6.0,94,-99.99,,,0.05,1-wire,2013-01-28 13:14:00,
2013-01-28 07:20:00,36.0,34.4,29.85,NW,316,1.0,3.0,94,-99.99,,,0.05,1-wire,2013-01-28 13:20:00,
2013-01-28 07:25:00,36.0,34.4,29.85,WNW,295,1.0,3.0,94,-99.99,,,0.05,1-wire,2013-01-28 13:25:00,
2013-01-28 07:31:00,36.0,34.5,29.85,WNW,295,1.0,3.0,94,-99.99,,,0.05,1-wire,2013-01-28 13:31:00,
2013-01-28 07:37:00,35.7,34.1,29.85,WNW,292,4.0,9.0,94,-99.99,,,0.05,1-wire,2013-01-28 13:37:00,
2013-01-28 07:42:00,35.8,34.2,29.86,WNW,292,2.0,6.0,94,-99.99,,,0.05,1-wire,2013-01-28 13:42:00,
2013-01-28 07:48:00,35.9,34.3,29.86,WNW,292,1.0,3.0,94,-99.99,,,0.05,1-wire,2013-01-28 13:48:00,
2013-01-28 07:53:00,35.8,34.1,29.86,WNW,297,1.0,3.0,93,-99.99,,,0.05,1-wire,2013-01-28 13:53:00,
2013-01-28 07:58:00,35.9,34.2,29.86,WNW,297,1.0,3.0,93,-99.99,,,0.05,1-wire,2013-01-28 13:58:00,
2013-01-28 08:03:00,36.1,34.3,29.86,WNW,297,1.0,3.0,93,-99.99,,,0.05,1-wire,2013-01-28 14:03:00,
2013-01-28 08:08:00,35.9,34.1,29.86,WNW,299,2.0,3.0,93,-99.99,,,0.05,1-wire,2013-01-28 14:08:00,
2013-01-28 08:13:00,35.9,34.1,29.86,WNW,299,1.0,3.0,93,-99.99,,,0.05,1-wire,2013-01-28 14:13:00,
2013-01-28 08:18:00,35.7,33.9,29.87,WNW,299,0.0,3.0,93,-99.99,,,0.05,1-wire,2013-01-28 14:18:00,
2013-01-28 08:23:00,36.0,34.2,29.87,WNW,293,1.0,3.0,93,-99.99,,,0.05,1-wire,2013-01-28 14:23:00,
2013-01-28 08:28:00,35.9,34.1,29.87,WNW,293,1.0,3.0,93,-99.99,,,0.05,1-wire,2013-01-28 14:28:00,
2013-01-28 08:33:00,35.8,34.0,29.88,WNW,293,1.0,3.0,93,-99.99,,,0.05,1-wire,2013-01-28 14:33:00,
2013-01-28 08:38:00,35.8,33.9,29.88,WNW,297,2.0,6.0,93,-99.99,,,0.05,1-wire,2013-01-28 14:38:00,
2013-01-28 08:43:00,35.9,34.0,29.88,WNW,297,0.0,0.0,93,-99.99,,,0.05,1-wire,2013-01-28 14:43:00,
2013-01-28 08:48:00,35.5,33.5,29.88,WNW,297,3.0,6.0,92,-99.99,,,0.05,1-wire,2013-01-28 14:48:00,
2013-01-28 08:53:00,35.7,33.8,29.88,WNW,295,3.0,6.0,93,-99.99,,,0.05,1-wire,2013-01-28 14:53:00,
2013-01-28 08:58:00,35.6,33.6,29.89,WNW,295,3.0,6.0,92,-99.99,,,0.05,1-wire,2013-01-28 14:58:00,
2013-01-28 09:03:00,36.0,34.0,29.89,WNW,295,1.0,3.0,92,-99.99,,,0.05,1-wire,2013-01-28 15:03:00,
2013-01-28 09:08:00,36.0,34.0,29.89,WNW,283,0.0,3.0,92,-99.99,,,0.05,1-wire,2013-01-28 15:08:00,
2013-01-28 09:13:00,36.2,34.2,29.90,WNW,283,1.0,3.0,92,-99.99,,,0.05,1-wire,2013-01-28 15:13:00,
2013-01-28 09:18:00,36.4,34.3,29.89,WNW,283,1.0,3.0,92,-99.99,,,0.05,1-wire,2013-01-28 15:18:00,
2013-01-28 09:23:00,36.1,33.9,29.89,WNW,283,2.0,6.0,92,-99.99,,,0.05,1-wire,2013-01-28 15:23:00,
2013-01-28 09:28:00,36.3,34.1,29.89,WNW,283,1.0,3.0,92,-99.99,,,0.05,1-wire,2013-01-28 15:28:00,
2013-01-28 09:33:00,36.5,34.3,29.89,WNW,283,1.0,3.0,92,-99.99,,,0.05,1-wire,2013-01-28 15:33:00,
2013-01-28 09:38:00,36.3,33.9,29.90,WNW,287,1.0,3.0,91,-99.99,,,0.05,1-wire,2013-01-28 15:38:00,
2013-01-28 09:43:00,36.8,34.4,29.90,WNW,287,1.0,3.0,91,-99.99,,,0.05,1-wire,2013-01-28 15:43:00,
2013-01-28 09:48:00,37.1,34.6,29.90,WNW,287,1.0,3.0,91,-99.99,,,0.05,1-wire,2013-01-28 15:48:00,
2013-01-28 09:53:00,36.7,34.2,29.90,WNW,294,3.0,6.0,91,-99.99,,,0.05,1-wire,2013-01-28 15:53:00,
2013-01-28 09:58:00,36.8,34.2,29.90,WNW,294,2.0,6.0,90,-99.99,,,0.05,1-wire,2013-01-28 15:58:00,
2013-01-28 10:04:00,37.0,34.3,29.91,WNW,294,1.0,3.0,90,-99.99,,,0.05,1-wire,2013-01-28 16:04:00,
2013-01-28 10:09:00,37.1,34.3,29.91,WNW,288,1.0,3.0,90,-99.99,,,0.05,1-wire,2013-01-28 16:09:00,
2013-01-28 10:15:00,37.4,34.4,29.91,WNW,288,1.0,3.0,89,-99.99,,,0.05,1-wire,2013-01-28 16:15:00,
2013-01-28 10:20:00,37.9,34.8,29.91,WNW,288,2.0,6.0,89,-99.99,,,0.05,1-wire,2013-01-28 16:20:00,
2013-01-28 10:26:00,38.6,34.8,29.90,WNW,295,2.0,6.0,86,-99.99,,,0.05,1-wire,2013-01-28 16:26:00,
2013-01-28 10:32:00,39.5,35.2,29.90,WNW,295,0.0,3.0,85,-99.99,,,0.05,1-wire,2013-01-28 16:32:00,
2013-01-28 10:37:00,39.5,34.3,29.90,WNW,293,2.0,6.0,81,-99.99,,,0.05,1-wire,2013-01-28 16:37:00,
2013-01-28 10:43:00,40.5,35.1,29.90,WNW,293,3.0,6.0,81,-99.99,,,0.05,1-wire,2013-01-28 16:43:00,
2013-01-28 10:48:00,40.6,34.0,29.90,WNW,293,3.0,6.0,77,-99.99,,,0.05,1-wire,2013-01-28 16:48:00,
2013-01-28 10:53:00,40.3,33.4,29.90,WNW,296,3.0,6.0,76,-99.99,,,0.05,1-wire,2013-01-28 16:53:00,
2013-01-28 10:58:00,40.0,33.2,29.90,WNW,296,2.0,3.0,76,-99.99,,,0.05,1-wire,2013-01-28 16:58:00,
2013-01-28 11:03:00,40.1,33.1,29.90,WNW,296,3.0,6.0,76,-99.99,,,0.05,1-wire,2013-01-28 17:03:00,
2013-01-28 11:08:00,39.4,32.8,29.90,NW,305,6.0,13.0,77,-99.99,,,0.05,1-wire,2013-01-28 17:08:00,
2013-01-28 11:13:00,38.4,32.2,29.90,NW,305,6.0,11.0,78,-99.99,,,0.05,1-wire,2013-01-28 17:13:00,
2013-01-28 11:18:00,38.7,32.8,29.90,NW,305,2.0,6.0,79,-99.99,,,0.05,1-wire,2013-01-28 17:18:00,
2013-01-28 11:23:00,38.3,32.3,29.90,NW,320,3.0,8.0,79,-99.99,,,0.05,1-wire,2013-01-28 17:23:00,
2013-01-28 11:28:00,37.7,31.9,29.90,NW,320,4.0,8.0,79,-99.99,,,0.05,1-wire,2013-01-28 17:28:00,
2013-01-28 11:33:00,38.0,32.3,29.90,NW,320,4.0,6.0,80,-99.99,,,0.05,1-wire,2013-01-28 17:33:00,
2013-01-28 11:38:00,37.9,32.3,29.90,NW,318,3.0,6.0,80,-99.99,,,0.05,1-wire,2013-01-28 17:38:00,
2013-01-28 11:43:00,37.9,32.3,29.92,NW,318,1.0,3.0,80,-99.99,,,0.05,1-wire,2013-01-28 17:43:00,
2013-01-28 11:48:00,37.9,32.3,29.92,NW,318,2.0,6.0,80,-99.99,,,0.05,1-wire,2013-01-28 17:48:00,
2013-01-28 11:53:00,37.8,32.2,29.92,WNW,302,0.0,3.0,80,-99.99,,,0.05,1-wire,2013-01-28 17:53:00,
2013-01-28 11:58:00,38.0,32.1,29.92,WNW,302,1.0,3.0,79,-99.99,,,0.05,1-wire,2013-01-28 17:58:00,
2013-01-28 12:03:00,37.9,32.1,29.91,WNW,302,2.0,3.0,79,-99.99,,,0.05,1-wire,2013-01-28 18:03:00,
2013-01-28 12:08:00,37.9,32.0,29.90,WNW,299,0.0,3.0,79,-99.99,,,0.05,1-wire,2013-01-28 18:08:00,
2013-01-28 12:13:00,37.7,31.9,29.91,WNW,299,1.0,3.0,79,-99.99,,,0.05,1-wire,2013-01-28 18:13:00,
2013-01-28 12:18:00,37.8,32.0,29.90,WNW,299,2.0,6.0,79,-99.99,,,0.05,1-wire,2013-01-28 18:18:00,
2013-01-28 12:23:00,38.3,32.6,29.90,WNW,290,2.0,3.0,80,-99.99,,,0.05,1-wire,2013-01-28 18:23:00,
2013-01-28 12:28:00,38.6,32.7,29.90,WNW,290,1.0,3.0,79,-99.99,,,0.05,1-wire,2013-01-28 18:28:00,
2013-01-28 12:33:00,38.4,32.4,29.90,WNW,290,0.0,3.0,79,-99.99,,,0.05,1-wire,2013-01-28 18:33:00,
2013-01-28 12:38:00,38.5,32.4,29.90,WNW,296,1.0,3.0,78,-99.99,,,0.05,1-wire,2013-01-28 18:38:00,
2013-01-28 12:43:00,38.6,32.5,29.90,WNW,296,1.0,3.0,78,-99.99,,,0.05,1-wire,2013-01-28 18:43:00,
2013-01-28 12:49:00,38.4,32.3,29.90,WNW,296,0.0,3.0,79,-99.99,,,0.05,1-wire,2013-01-28 18:49:00,
2013-01-28 12:54:00,38.8,32.7,29.89,NW,307,0.0,3.0,79,-99.99,,,0.05,1-wire,2013-01-28 18:54:00,
2013-01-28 13:00:00,39.1,32.6,29.89,NW,307,0.0,0.0,77,-99.99,,,0.05,1-wire,2013-01-28 19:00:00,
2013-01-28 13:05:00,38.3,31.9,29.89,NW,307,1.0,3.0,77,-99.99,,,0.05,1-wire,2013-01-28 19:05:00,
2013-01-28 13:10:00,38.5,32.2,29.90,NNW,338,1.0,3.0,78,-99.99,,,0.05,1-wire,2013-01-28 19:10:00,
2013-01-28 13:16:00,39.1,32.5,29.89,NNW,338,2.0,3.0,77,-99.99,,,0.05,1-wire,2013-01-28 19:16:00,
2013-01-28 13:21:00,39.5,32.6,29.89,North,5,1.0,3.0,76,-99.99,,,0.05,1-wire,2013-01-28 19:21:00,
2013-01-28 13:27:00,40.2,33.0,29.89,North,5,1.0,3.0,75,-99.99,,,0.05,1-wire,2013-01-28 19:27:00,
2013-01-28 13:32:00,39.7,32.3,29.89,North,5,0.0,3.0,75,-99.99,,,0.05,1-wire,2013-01-28 19:32:00,
2013-01-28 13:38:00,40.2,32.8,29.90,NNE,17,0.0,0.0,75,-99.99,,,0.05,1-wire,2013-01-28 19:38:00,
2013-01-28 13:44:00,40.3,33.0,29.90,NNE,17,1.0,3.0,75,-99.99,,,0.05,1-wire,2013-01-28 19:44:00,
2013-01-28 13:49:00,40.3,32.9,29.90,NNE,17,0.0,3.0,75,-99.99,,,0.05,1-wire,2013-01-28 19:49:00,
2013-01-28 13:55:00,40.8,33.1,29.89,North,354,0.0,0.0,74,-99.99,,,0.05,1-wire,2013-01-28 19:55:00,
2013-01-28 14:00:00,39.6,32.3,29.89,North,354,0.0,0.0,75,-99.99,,,0.05,1-wire,2013-01-28 20:00:00,
2013-01-28 14:05:00,39.3,32.3,29.90,North,354,1.0,3.0,76,-99.99,,,0.05,1-wire,2013-01-28 20:05:00,
2013-01-28 14:10:00,39.5,32.6,29.90,North,8,0.0,3.0,76,-99.99,,,0.05,1-wire,2013-01-28 20:10:00,
2013-01-28 14:15:00,40.0,33.0,29.90,North,8,0.0,0.0,76,-99.99,,,0.05,1-wire,2013-01-28 20:15:00,
2013-01-28 14:20:00,40.0,32.9,29.90,North,8,0.0,0.0,75,-99.99,,,0.05,1-wire,2013-01-28 20:20:00,
2013-01-28 14:25:00,40.2,32.7,29.90,NNE,25,0.0,0.0,74,-99.99,,,0.05,1-wire,2013-01-28 20:25:00,
2013-01-28 14:31:00,39.8,32.3,29.90,NNE,25,1.0,3.0,74,-99.99,,,0.05,1-wire,2013-01-28 20:31:00,
2013-01-28 14:36:00,40.6,33.0,29.90,NNE,30,2.0,3.0,74,-99.99,,,0.05,1-wire,2013-01-28 20:36:00,
2013-01-28 14:41:00,40.7,33.3,29.90,NNE,30,0.0,3.0,75,-99.99,,,0.05,1-wire,2013-01-28 20:41:00,
2013-01-28 14:46:00,40.9,33.4,29.91,NNE,30,0.0,0.0,74,-99.99,,,0.05,1-wire,2013-01-28 20:46:00,
2013-01-28 14:51:00,40.3,32.9,29.90,North,9,0.0,0.0,75,-99.99,,,0.05,1-wire,2013-01-28 20:51:00,
2013-01-28 14:56:00,40.5,33.0,29.91,North,9,0.0,0.0,74,-99.99,,,0.05,1-wire,2013-01-28 20:56:00,
2013-01-28 15:01:00,40.8,33.2,29.92,North,9,0.0,3.0,74,-99.99,,,0.05,1-wire,2013-01-28 21:01:00,
2013-01-28 15:06:00,40.8,33.1,29.92,NNE,18,1.0,3.0,74,-99.99,,,0.05,1-wire,2013-01-28 21:06:00,
2013-01-28 15:12:00,40.7,32.7,29.92,NNE,18,0.0,3.0,73,-99.99,,,0.05,1-wire,2013-01-28 21:12:00,
2013-01-28 15:17:00,40.7,33.1,29.92,NNE,18,0.0,0.0,74,-99.99,,,0.05,1-wire,2013-01-28 21:17:00,
2013-01-28 15:22:00,40.7,32.8,29.91,NNE,26,0.0,3.0,73,-99.99,,,0.05,1-wire,2013-01-28 21:22:00,
2013-01-28 15:27:00,41.1,33.1,29.92,NNE,26,0.0,3.0,73,-99.99,,,0.05,1-wire,2013-01-28 21:27:00,
2013-01-28 15:32:00,40.5,32.7,29.92,NNE,26,0.0,0.0,73,-99.99,,,0.05,1-wire,2013-01-28 21:32:00,
2013-01-28 15:37:00,40.6,33.1,29.92,NNE,28,0.0,3.0,74,-99.99,,,0.05,1-wire,2013-01-28 21:37:00,
2013-01-28 15:42:00,40.7,33.1,29.91,NNE,28,0.0,0.0,74,-99.99,,,0.05,1-wire,2013-01-28 21:42:00,
2013-01-28 15:48:00,40.4,33.2,29.91,NNE,28,0.0,0.0,75,-99.99,,,0.05,1-wire,2013-01-28 21:48:00,
2013-01-28 15:53:00,40.6,33.4,29.91,NNE,30,0.0,0.0,75,-99.99,,,0.05,1-wire,2013-01-28 21:53:00,
2013-01-28 15:59:00,40.5,33.1,29.90,NNE,30,0.0,3.0,74,-99.99,,,0.05,1-wire,2013-01-28 21:59:00,
2013-01-28 16:04:00,40.6,33.3,29.91,NNE,30,0.0,0.0,75,-99.99,,,0.05,1-wire,2013-01-28 22:04:00,
2013-01-28 16:10:00,40.3,33.1,29.90,NNE,25,0.0,0.0,75,-99.99,,,0.05,1-wire,2013-01-28 22:10:00,
2013-01-28 16:15:00,39.8,33.0,29.90,NNE,25,0.0,0.0,76,-99.99,,,0.05,1-wire,2013-01-28 22:15:00,
2013-01-28 16:21:00,39.7,33.0,29.90,ENE,58,0.0,0.0,77,-99.99,,,0.05,1-wire,2013-01-28 22:21:00,
2013-01-28 16:27:00,39.4,33.0,29.90,ENE,58,0.0,0.0,78,-99.99,,,0.05,1-wire,2013-01-28 22:27:00,
2013-01-28 16:32:00,38.8,32.7,29.90,ENE,58,0.0,0.0,78,-99.99,,,0.05,1-wire,2013-01-28 22:32:00,
2013-01-28 16:38:00,38.4,32.3,29.90,ENE,58,0.0,0.0,78,-99.99,,,0.05,1-wire,2013-01-28 22:38:00,
2013-01-28 16:43:00,38.6,32.5,29.90,ENE,58,0.0,0.0,79,-99.99,,,0.05,1-wire,2013-01-28 22:43:00,
2013-01-28 16:49:00,38.6,32.7,29.90,ENE,58,0.0,0.0,79,-99.99,,,0.05,1-wire,2013-01-28 22:49:00,
2013-01-28 16:54:00,38.4,32.6,29.90,ENE,58,0.0,0.0,80,-99.99,,,0.05,1-wire,2013-01-28 22:54:00,
2013-01-28 16:59:00,38.2,32.5,29.89,ENE,58,0.0,0.0,80,-99.99,,,0.05,1-wire,2013-01-28 22:59:00,
2013-01-28 17:04:00,37.7,32.3,29.90,ENE,58,0.0,0.0,81,-99.99,,,0.05,1-wire,2013-01-28 23:04:00,
2013-01-28 17:09:00,37.9,32.4,29.89,NNE,28,0.0,0.0,80,-99.99,,,0.05,1-wire,2013-01-28 23:09:00,
2013-01-28 17:14:00,37.0,31.9,29.90,NNE,28,0.0,0.0,82,-99.99,,,0.05,1-wire,2013-01-28 23:14:00,
2013-01-28 17:19:00,36.8,31.8,29.89,NNE,28,0.0,0.0,82,-99.99,,,0.05,1-wire,2013-01-28 23:19:00,
2013-01-28 17:24:00,36.3,31.6,29.90,ENE,75,0.0,0.0,83,-99.99,,,0.05,1-wire,2013-01-28 23:24:00,
2013-01-28 17:29:00,36.4,31.8,29.90,ENE,75,0.0,0.0,83,-99.99,,,0.05,1-wire,2013-01-28 23:29:00,
2013-01-28 17:34:00,36.3,31.7,29.90,ENE,75,0.0,0.0,83,-99.99,,,0.05,1-wire,2013-01-28 23:34:00,
2013-01-28 17:39:00,35.9,31.6,29.90,ENE,78,0.0,0.0,84,-99.99,,,0.05,1-wire,2013-01-28 23:39:00,
2013-01-28 17:44:00,35.4,31.3,29.89,ENE,78,0.0,0.0,85,-99.99,,,0.05,1-wire,2013-01-28 23:44:00,
2013-01-28 17:49:00,35.0,31.2,29.90,ENE,78,0.0,0.0,86,-99.99,,,0.05,1-wire,2013-01-28 23:49:00,
2013-01-28 17:54:00,34.9,31.1,29.90,ENE,77,0.0,0.0,86,-99.99,,,0.05,1-wire,2013-01-28 23:54:00,
2013-01-28 17:59:00,34.9,31.2,29.90,ENE,77,0.0,0.0,86,-99.99,,,0.05,1-wire,2013-01-28 23:59:00,
2013-01-28 18:04:00,35.0,31.3,29.90,ENE,77,0.0,0.0,86,-99.99,,,0.05,1-wire,2013-01-29 00:04:00,
2013-01-28 18:09:00,35.2,31.4,29.90,ESE,102,0.0,0.0,86,-99.99,,,0.05,1-wire,2013-01-29 00:09:00,
2013-01-28 18:14:00,35.2,31.3,29.90,ESE,102,0.0,0.0,86,-99.99,,,0.05,1-wire,2013-01-29 00:14:00,
2013-01-28 18:19:00,35.0,31.1,29.90,ESE,102,0.0,0.0,85,-99.99,,,0.05,1-wire,2013-01-29 00:19:00,
2013-01-28 18:24:00,34.6,31.1,29.90,ENE,74,0.0,0.0,87,-99.99,,,0.05,1-wire,2013-01-29 00:24:00,
2013-01-28 18:29:00,34.5,31.1,29.90,ENE,74,0.0,0.0,87,-99.99,,,0.05,1-wire,2013-01-29 00:29:00,
2013-01-28 18:34:00,34.8,31.4,29.91,ENE,74,0.0,0.0,87,-99.99,,,0.05,1-wire,2013-01-29 00:34:00,
2013-01-28 18:39:00,34.8,31.4,29.90,East,84,0.0,0.0,87,-99.99,,,0.05,1-wire,2013-01-29 00:39:00,
2013-01-28 18:44:00,35.0,31.4,29.90,East,84,0.0,0.0,87,-99.99,,,0.05,1-wire,2013-01-29 00:44:00,
2013-01-28 18:49:00,35.0,31.3,29.90,East,84,0.0,0.0,86,-99.99,,,0.05,1-wire,2013-01-29 00:49:00,
2013-01-28 18:54:00,34.3,30.8,29.90,East,81,0.0,0.0,87,-99.99,,,0.05,1-wire,2013-01-29 00:54:00,
2013-01-28 18:59:00,34.5,31.1,29.90,East,81,0.0,0.0,87,-99.99,,,0.05,1-wire,2013-01-29 00:59:00,
2013-01-28 19:04:00,34.9,31.6,29.90,East,81,0.0,0.0,88,-99.99,,,0.05,1-wire,2013-01-29 01:04:00,
2013-01-28 19:09:00,34.6,31.2,29.90,SE,128,0.0,0.0,87,-99.99,,,0.05,1-wire,2013-01-29 01:09:00,
2013-01-28 19:14:00,34.2,30.9,29.90,SE,128,0.0,3.0,88,-99.99,,,0.05,1-wire,2013-01-29 01:14:00,
2013-01-28 19:20:00,34.4,31.2,29.90,SE,128,0.0,0.0,88,-99.99,,,0.05,1-wire,2013-01-29 01:20:00,
2013-01-28 19:25:00,34.4,31.3,29.90,ESE,123,0.0,3.0,88,-99.99,,,0.05,1-wire,2013-01-29 01:25:00,
2013-01-28 19:31:00,34.6,31.5,29.90,ESE,123,1.0,3.0,88,-99.99,,,0.05,1-wire,2013-01-29 01:31:00,
2013-01-28 19:36:00,34.8,31.5,29.90,ESE,123,0.0,3.0,88,-99.99,,,0.05,1-wire,2013-01-29 01:36:00,
2013-01-28 19:42:00,34.8,31.4,29.90,ESE,123,2.0,3.0,87,-99.99,,,0.05,1-wire,2013-01-29 01:42:00,
2013-01-28 19:47:00,35.0,31.6,29.89,ESE,123,0.0,0.0,87,-99.99,,,0.05,1-wire,2013-01-29 01:47:00,
2013-01-28 19:52:00,35.4,31.9,29.90,ESE,119,0.0,0.0,87,-99.99,,,0.05,1-wire,2013-01-29 01:52:00,
2013-01-28 19:57:00,35.4,31.9,29.90,ESE,119,1.0,3.0,87,-99.99,,,0.05,1-wire,2013-01-29 01:57:00,
2013-01-28 20:02:00,35.5,31.9,29.89,ESE,119,0.0,3.0,87,-99.99,,,0.05,1-wire,2013-01-29 02:02:00,
2013-01-28 20:07:00,35.7,32.2,29.89,SE,134,0.0,0.0,87,-99.99,,,0.05,1-wire,2013-01-29 02:07:00,
2013-01-28 20:12:00,35.6,32.0,29.90,SE,134,2.0,3.0,87,-99.99,,,0.05,1-wire,2013-01-29 02:12:00,
2013-01-28 20:17:00,35.7,32.1,29.88,SE,134,1.0,3.0,86,-99.99,,,0.05,1-wire,2013-01-29 02:17:00,
2013-01-28 20:22:00,35.8,32.2,29.88,SE,125,1.0,6.0,87,-99.99,,,0.05,1-wire,2013-01-29 02:22:00,
2013-01-28 20:27:00,36.1,32.5,29.88,SE,125,0.0,3.0,87,-99.99,,,0.05,1-wire,2013-01-29 02:27:00,
2013-01-28 20:32:00,36.2,32.4,29.89,SE,125,2.0,6.0,86,-99.99,,,0.05,1-wire,2013-01-29 02:32:00,
2013-01-28 20:37:00,36.1,32.3,29.88,SE,141,1.0,3.0,86,-99.99,,,0.05,1-wire,2013-01-29 02:37:00,
2013-01-28 20:42:00,36.2,32.6,29.87,SE,141,2.0,6.0,86,-99.99,,,0.05,1-wire,2013-01-29 02:42:00,
2013-01-28 20:47:00,36.3,32.7,29.88,SE,141,0.0,3.0,87,-99.99,,,0.05,1-wire,2013-01-29 02:47:00,
2013-01-28 20:52:00,36.2,32.7,29.86,SE,134,1.0,3.0,87,-99.99,,,0.05,1-wire,2013-01-29 02:52:00,
2013-01-28 20:57:00,36.2,32.7,29.86,SE,134,4.0,8.0,87,-99.99,,,0.05,1-wire,2013-01-29 02:57:00,
2013-01-28 21:02:00,36.3,32.7,29.86,SE,134,0.0,3.0,87,-99.99,,,0.05,1-wire,2013-01-29 03:02:00,
2013-01-28 21:07:00,36.3,32.7,29.87,SE,137,2.0,6.0,87,-99.99,,,0.05,1-wire,2013-01-29 03:07:00,
2013-01-28 21:12:00,36.3,32.7,29.86,SE,137,2.0,6.0,87,-99.99,,,0.05,1-wire,2013-01-29 03:12:00,
2013-01-28 21:17:00,36.4,32.9,29.86,SE,137,0.0,3.0,87,-99.99,,,0.05,1-wire,2013-01-29 03:17:00,
2013-01-28 21:22:00,36.4,32.9,29.86,SE,128,1.0,6.0,87,-99.99,,,0.05,1-wire,2013-01-29 03:22:00,
2013-01-28 21:27:00,36.3,32.8,29.85,SE,128,1.0,3.0,87,-99.99,,,0.05,1-wire,2013-01-29 03:27:00,
2013-01-28 21:33:00,36.3,32.8,29.85,SE,128,3.0,6.0,87,-99.99,,,0.05,1-wire,2013-01-29 03:33:00,
2013-01-28 21:38:00,36.4,32.9,29.84,SE,125,2.0,5.0,87,-99.99,,,0.05,1-wire,2013-01-29 03:38:00,
2013-01-28 21:43:00,36.3,32.7,29.84,SE,125,2.0,6.0,87,-99.99,,,0.05,1-wire,2013-01-29 03:43:00,
2013-01-28 21:48:00,36.3,32.8,29.83,SE,125,1.0,6.0,87,-99.99,,,0.05,1-wire,2013-01-29 03:48:00,
2013-01-28 21:54:00,36.2,32.7,29.82,SE,125,2.0,6.0,87,-99.99,,,0.05,1-wire,2013-01-29 03:54:00,
2013-01-28 21:59:00,36.2,32.7,29.82,SE,125,3.0,6.0,87,-99.99,,,0.05,1-wire,2013-01-29 03:59:00,
2013-01-28 22:04:00,36.2,32.8,29.81,SE,125,3.0,6.0,87,-99.99,,,0.05,1-wire,2013-01-29 04:04:00,
2013-01-28 22:10:00,36.4,32.9,29.82,ESE,121,3.0,6.0,87,-99.99,,,0.05,1-wire,2013-01-29 04:10:00,
2013-01-28 22:15:00,36.3,32.9,29.81,ESE,121,3.0,10.0,87,-99.99,,,0.05,1-wire,2013-01-29 04:15:00,
2013-01-28 22:21:00,36.3,33.0,29.78,SE,127,1.0,3.0,88,-99.99,,,0.05,1-wire,2013-01-29 04:21:00,
2013-01-28 22:26:00,36.3,33.1,29.78,SE,127,5.0,9.0,88,-99.99,,,0.05,1-wire,2013-01-29 04:26:00,
2013-01-28 22:32:00,36.4,33.2,29.78,SE,127,1.0,3.0,88,-99.99,,,0.05,1-wire,2013-01-29 04:32:00,
2013-01-28 22:37:00,36.4,33.4,29.77,SE,127,3.0,6.0,89,-99.99,,,0.05,1-wire,2013-01-29 04:37:00,
2013-01-28 22:42:00,36.2,33.4,29.77,SE,127,5.0,11.0,89,-99.99,,,0.05,1-wire,2013-01-29 04:42:00,
2013-01-28 22:48:00,36.3,33.6,29.77,SE,127,4.0,6.0,90,-99.99,,,0.05,1-wire,2013-01-29 04:48:00,
2013-01-28 22:53:00,36.2,33.7,29.76,SE,126,2.0,6.0,90,-99.99,,,0.05,1-wire,2013-01-29 04:53:00,
2013-01-28 22:58:00,36.3,33.8,29.75,SE,126,2.0,6.0,91,-99.99,,,0.05,1-wire,2013-01-29 04:58:00,
2013-01-28 23:01:00,36.2,33.9,29.75,SE,126,2.0,6.0,91,-99.99,,,0.05,1-wire,2013-01-29 05:01:00,
2013-01-28 23:02:00,36.2,33.8,29.75,SE,126,3.0,6.0,91,-99.99,,,0.05,1-wire,2013-01-29 05:02:00,
2013-01-28 23:03:00,36.3,34.0,29.76,SE,126,2.0,6.0,91,-99.99,,,0.05,1-wire,2013-01-29 05:03:00,
2013-01-28 23:07:00,36.3,34.1,29.75,SE,126,2.0,6.0,91,-99.99,,,0.05,1-wire,2013-01-29 05:07:00,
2013-01-28 23:12:00,36.2,34.0,29.75,SE,126,0.0,3.0,92,-99.99,,,0.05,1-wire,2013-01-29 05:12:00,
2013-01-28 23:17:00,36.3,34.2,29.73,SE,126,1.0,3.0,92,-99.99,,,0.05,1-wire,2013-01-29 05:17:00,
2013-01-28 23:22:00,36.3,34.3,29.74,ESE,116,1.0,5.0,92,-99.99,,,0.05,1-wire,2013-01-29 05:22:00,
2013-01-28 23:27:00,36.3,34.4,29.75,ESE,116,1.0,3.0,93,-99.99,,,0.05,1-wire,2013-01-29 05:27:00,
2013-01-28 23:32:00,36.3,34.4,29.74,ESE,116,0.0,3.0,93,-99.99,,,0.05,1-wire,2013-01-29 05:32:00,
2013-01-28 23:37:00,36.2,34.4,29.74,ESE,120,1.0,3.0,93,-99.99,,,0.05,1-wire,2013-01-29 05:37:00,
2013-01-28 23:42:00,36.2,34.4,29.73,ESE,120,1.0,3.0,93,-99.99,,,0.06,1-wire,2013-01-29 05:42:00,
2013-01-28 23:47:00,36.4,34.6,29.75,ESE,120,1.0,3.0,93,-99.99,,,0.06,1-wire,2013-01-29 05:47:00,
2013-01-28 23:52:00,36.3,34.6,29.76,SE,133,1.0,3.0,94,-99.99,,,0.08,1-wire,2013-01-29 05:52:00,
2013-01-28 23:57:00,36.4,34.7,29.75,SE,133,1.0,3.0,94,-99.99,,,0.13,1-wire,2013-01-29 05:57:00,